createdAt,value
2023-02-02T00:01:16.616Z,2.96
2023-02-02T00:04:03.560Z,2.81
2023-02-02T00:06:49.933Z,2.82
2023-02-02T00:09:36.593Z,2.98
2023-02-02T00:12:22.983Z,2.98
2023-02-02T00:15:11.122Z,2.94
2023-02-02T00:17:57.442Z,2.92
2023-02-02T00:20:45.963Z,2.92
2023-02-02T00:23:32.714Z,2.87
2023-02-02T00:26:20.200Z,2.92
2023-02-02T00:29:08.532Z,2.94
2023-02-02T00:31:55.109Z,2.89
2023-02-02T00:34:41.878Z,2.89
2023-02-02T00:37:28.493Z,2.93
2023-02-02T00:40:16.574Z,2.93
2023-02-02T00:43:05.519Z,2.91
2023-02-02T00:45:51.902Z,2.94
2023-02-02T00:48:38.470Z,2.72
2023-02-02T00:51:24.695Z,2.91
2023-02-02T00:54:14.015Z,2.91
2023-02-02T00:57:00.851Z,2.87
2023-02-02T00:59:47.664Z,2.87
2023-02-02T01:02:37.350Z,2.57
2023-02-02T01:05:27.452Z,2.83
2023-02-02T01:08:13.963Z,2.87
2023-02-02T01:11:03.081Z,2.82
2023-02-02T01:13:49.505Z,2.86
2023-02-02T01:16:36.320Z,2.88
2023-02-02T01:19:22.759Z,2.84
2023-02-02T01:22:12.017Z,2.80
2023-02-02T01:24:58.196Z,2.84
2023-02-02T01:31:51.058Z,2.86
2023-02-02T01:34:41.794Z,2.84
2023-02-02T01:37:28.349Z,2.69
2023-02-02T01:40:15.243Z,2.79
2023-02-02T01:43:01.561Z,2.77
2023-02-02T01:45:52.440Z,2.65
2023-02-02T01:48:44.143Z,2.82
2023-02-02T01:51:43.469Z,2.80
2023-02-02T01:54:34.606Z,2.73
2023-02-02T01:57:33.766Z,2.74
2023-02-02T02:00:27.244Z,2.76
2023-02-02T02:03:17.382Z,2.74
2023-02-02T02:06:18.339Z,2.73
2023-02-02T02:09:08.314Z,2.68
2023-02-02T02:11:54.776Z,2.62
2023-02-02T02:15:06.573Z,2.73
2023-02-02T02:18:00.115Z,2.60
2023-02-02T02:21:15.579Z,2.77
2023-02-02T02:24:54.063Z,2.79
2023-02-02T02:28:02.917Z,2.75
2023-02-02T02:31:03.064Z,2.72
2023-02-02T02:34:05.602Z,2.70
2023-02-02T02:37:00.107Z,2.65
2023-02-02T02:39:55.796Z,2.59
2023-02-02T02:42:46.913Z,2.47
2023-02-02T02:45:34.786Z,2.65
2023-02-02T02:48:21.443Z,2.50
2023-02-02T02:51:10.085Z,2.56
2023-02-02T02:54:04.966Z,2.60
2023-02-02T02:57:25.671Z,2.61
2023-02-02T03:00:26.460Z,2.28
2023-02-02T03:03:19.389Z,2.62
2023-02-02T03:06:15.441Z,2.57
2023-02-02T03:09:10.154Z,2.56
2023-02-02T03:11:56.803Z,2.54
2023-02-02T03:14:43.798Z,2.49
2023-02-02T03:17:30.114Z,2.48
2023-02-02T03:20:17.266Z,2.42
2023-02-02T03:23:03.959Z,2.39
2023-02-02T03:25:50.466Z,2.35
2023-02-02T03:28:36.937Z,2.30
2023-02-02T03:31:24.747Z,2.10
2023-02-02T03:34:11.285Z,2.04
2023-02-02T03:36:57.834Z,2.18
2023-02-02T03:39:46.856Z,2.04
2023-02-02T03:42:33.713Z,2.14
2023-02-02T03:45:20.102Z,2.09
2023-02-02T03:48:14.843Z,1.88
2023-02-02T03:51:01.341Z,2.03
2023-02-02T03:53:48.354Z,1.94
2023-02-02T03:56:34.736Z,1.85
2023-02-02T03:59:21.084Z,1.92
2023-02-02T04:02:07.553Z,1.94
2023-02-02T04:04:54.644Z,2.00
2023-02-02T04:07:40.789Z,1.66
2023-02-02T04:10:27.776Z,2.00
2023-02-02T04:13:13.888Z,2.00
2023-02-02T04:16:01.067Z,1.94
2023-02-02T04:18:49.969Z,2.01
2023-02-02T04:21:36.798Z,2.04
2023-02-02T04:24:23.793Z,2.02
2023-02-02T04:27:10.904Z,2.07
2023-02-02T04:29:57.510Z,2.01
2023-02-02T04:32:44.457Z,1.85
2023-02-02T04:35:30.762Z,2.10
2023-02-02T04:38:17.336Z,2.12
2023-02-02T04:41:11.092Z,2.17
2023-02-02T04:43:57.593Z,2.12
2023-02-02T04:46:44.331Z,2.18
2023-02-02T04:49:31.026Z,2.23
2023-02-02T04:52:17.186Z,2.12
2023-02-02T04:55:04.072Z,2.33
2023-02-02T04:57:50.833Z,2.36
2023-02-02T05:00:37.695Z,2.44
2023-02-02T05:03:24.227Z,2.46
2023-02-02T05:06:10.717Z,2.45
2023-02-02T05:08:57.131Z,2.51
2023-02-02T05:11:44.661Z,2.21
2023-02-02T05:14:30.993Z,2.56
2023-02-02T05:21:59.883Z,2.57
2023-02-02T05:24:50.256Z,2.45
2023-02-02T05:27:37.684Z,2.60
2023-02-02T05:30:26.011Z,2.58
2023-02-02T05:33:12.963Z,2.58
2023-02-02T05:35:59.543Z,2.62
2023-02-02T05:38:46.069Z,2.61
2023-02-02T05:41:32.765Z,2.65
2023-02-02T05:44:19.525Z,2.53
2023-02-02T05:47:06.987Z,2.70
2023-02-02T05:49:53.733Z,2.55
2023-02-02T05:52:42.862Z,2.58
2023-02-02T05:55:29.280Z,2.72
2023-02-02T05:58:18.362Z,2.71
2023-02-02T06:01:05.467Z,2.71
2023-02-02T06:03:51.980Z,2.73
2023-02-02T06:06:39.212Z,2.57
2023-02-02T06:09:26.156Z,2.76
2023-02-02T06:12:12.796Z,2.79
2023-02-02T06:15:03.221Z,2.77
2023-02-02T06:17:50.260Z,2.72
2023-02-02T06:20:39.357Z,2.73
2023-02-02T06:23:25.710Z,2.69
2023-02-02T06:26:15.960Z,2.70
2023-02-02T06:29:03.030Z,2.66
2023-02-02T06:31:49.398Z,2.68
2023-02-02T06:34:36.275Z,2.64
2023-02-02T06:37:22.525Z,2.53
2023-02-02T06:40:13.528Z,2.48
2023-02-02T06:43:02.275Z,2.66
2023-02-02T06:45:48.539Z,2.67
2023-02-02T06:48:34.933Z,2.54
2023-02-02T06:51:21.654Z,2.72
2023-02-02T06:54:07.969Z,2.74
2023-02-02T06:56:56.188Z,2.65
2023-02-02T06:59:42.363Z,2.62
2023-02-02T07:02:29.220Z,2.62
2023-02-02T07:05:24.924Z,2.62
2023-02-02T07:08:16.756Z,2.64
2023-02-02T07:11:13.389Z,2.42
2023-02-02T07:14:04.415Z,2.63
2023-02-02T07:16:51.136Z,2.37
2023-02-02T07:19:38.173Z,2.71
2023-02-02T07:22:25.503Z,2.80
2023-02-02T07:25:12.708Z,2.76
2023-02-02T07:27:59.200Z,2.78
2023-02-02T07:30:49.013Z,2.85
2023-02-02T07:33:38.822Z,2.77
2023-02-02T07:36:26.201Z,2.87
2023-02-02T07:39:12.243Z,2.92
2023-02-02T07:41:58.595Z,2.82
2023-02-02T07:44:53.810Z,2.94
2023-02-02T07:47:40.569Z,2.95
2023-02-02T07:50:28.445Z,2.89
2023-02-02T07:53:15.345Z,2.97
2023-02-02T07:56:13.860Z,3.02
2023-02-02T07:59:00.694Z,3.05
2023-02-02T08:01:47.076Z,3.09
2023-02-02T08:04:34.459Z,2.97
2023-02-02T08:07:24.587Z,3.09
2023-02-02T08:10:11.766Z,3.00
2023-02-02T08:13:00.841Z,3.12
2023-02-02T08:15:47.692Z,3.16
2023-02-02T08:18:35.329Z,3.14
2023-02-02T08:21:21.554Z,2.99
2023-02-02T08:24:10.353Z,3.17
2023-02-02T08:26:57.437Z,3.14
2023-02-02T08:29:44.094Z,3.19
2023-02-02T08:32:31.582Z,3.19
2023-02-02T08:35:19.237Z,3.27
2023-02-02T08:38:07.832Z,3.22
2023-02-02T08:40:54.331Z,3.13
2023-02-02T08:43:44.043Z,3.29
2023-02-02T08:46:30.240Z,3.29
2023-02-02T08:49:17.892Z,3.29
2023-02-02T08:52:04.419Z,3.28
2023-02-02T08:54:53.421Z,3.30
2023-02-02T08:57:39.834Z,3.25
2023-02-02T09:00:26.591Z,3.13
2023-02-02T09:03:13.262Z,3.28
2023-02-02T09:06:14.016Z,3.32
2023-02-02T09:09:02.147Z,3.38
2023-02-02T09:15:48.021Z,3.44
2023-02-02T09:18:44.306Z,3.56
2023-02-02T09:21:30.838Z,3.60
2023-02-02T09:24:17.552Z,3.61
2023-02-02T09:27:04.713Z,3.58
2023-02-02T09:29:52.445Z,3.68
2023-02-02T09:32:42.030Z,3.73
2023-02-02T09:35:28.331Z,3.67
2023-02-02T09:38:15.416Z,3.67
2023-02-02T09:41:02.374Z,3.65
2023-02-02T09:44:01.511Z,3.86
2023-02-02T09:47:14.672Z,3.95
2023-02-02T09:50:06.048Z,3.93
2023-02-02T09:53:00.356Z,3.96
2023-02-02T09:55:50.852Z,4.07
2023-02-02T09:59:13.840Z,4.01
2023-02-02T10:02:16.325Z,4.00
2023-02-02T10:05:09.600Z,3.91
2023-02-02T10:08:00.105Z,4.03
2023-02-02T10:10:47.575Z,4.00
2023-02-02T10:13:37.911Z,3.94
2023-02-02T10:16:24.779Z,3.86
2023-02-02T10:19:13.855Z,3.57
2023-02-02T10:22:07.401Z,3.65
2023-02-02T10:24:55.247Z,3.67
2023-02-02T10:27:46.733Z,3.44
2023-02-02T10:30:59.962Z,3.62
2023-02-02T10:33:55.148Z,3.58
2023-02-02T10:36:57.137Z,3.44
2023-02-02T10:40:06.001Z,3.59
2023-02-02T10:43:37.291Z,3.58
2023-02-02T10:46:28.827Z,3.57
2023-02-02T10:49:32.159Z,3.45
2023-02-02T10:52:26.734Z,3.58
2023-02-02T10:55:28.195Z,3.56
2023-02-02T10:58:14.262Z,3.58
2023-02-02T11:01:08.088Z,3.63
2023-02-02T11:04:24.043Z,3.65
2023-02-02T11:07:20.620Z,3.64
2023-02-02T11:10:07.870Z,3.67
2023-02-02T11:12:57.191Z,3.69
2023-02-02T11:15:43.497Z,3.49
2023-02-02T11:18:33.519Z,3.65
2023-02-02T11:21:28.488Z,3.42
2023-02-02T11:24:48.126Z,3.61
2023-02-02T11:27:41.904Z,3.55
2023-02-02T11:30:34.786Z,3.54
2023-02-02T11:33:35.483Z,3.44
2023-02-02T11:36:25.637Z,3.44
2023-02-02T11:39:22.317Z,3.43
2023-02-02T11:42:34.673Z,3.39
2023-02-02T11:45:45.189Z,3.39
2023-02-02T11:48:39.141Z,3.34
2023-02-02T11:51:26.865Z,3.39
2023-02-02T11:54:18.619Z,3.11
2023-02-02T11:57:08.479Z,3.40
2023-02-02T12:00:10.555Z,3.17
2023-02-02T12:02:58.328Z,3.37
2023-02-02T12:05:50.130Z,3.30
2023-02-02T12:08:37.719Z,3.34
2023-02-02T12:11:50.930Z,3.34
2023-02-02T12:15:11.772Z,3.35
2023-02-02T12:18:36.434Z,3.50
2023-02-02T12:21:55.687Z,3.60
2023-02-02T12:24:49.331Z,3.67
2023-02-02T12:27:51.203Z,3.61
2023-02-02T12:30:51.150Z,3.84
2023-02-02T12:34:11.934Z,3.96
2023-02-02T12:37:10.633Z,4.02
2023-02-02T12:40:21.308Z,4.11
2023-02-02T12:43:39.425Z,4.13
2023-02-02T12:46:44.376Z,4.15
2023-02-02T12:49:56.127Z,4.10
2023-02-02T12:53:20.388Z,4.08
2023-02-02T12:56:28.841Z,4.07
2023-02-02T12:59:24.310Z,4.04
2023-02-02T13:02:25.410Z,3.98
2023-02-02T13:13:08.478Z,3.77
2023-02-02T13:15:59.715Z,3.76
2023-02-02T13:18:51.947Z,3.80
2023-02-02T13:21:40.110Z,3.71
2023-02-02T13:24:32.504Z,3.82
2023-02-02T13:27:20.688Z,3.79
2023-02-02T13:30:31.751Z,3.79
2023-02-02T13:33:24.022Z,3.73
2023-02-02T13:36:18.417Z,3.76
2023-02-02T13:39:18.212Z,3.38
2023-02-02T13:42:16.936Z,3.67
2023-02-02T13:45:21.816Z,3.63
2023-02-02T13:48:23.880Z,3.54
2023-02-02T13:51:18.589Z,3.64
2023-02-02T13:54:45.772Z,3.63
2023-02-02T13:58:04.691Z,3.63
2023-02-02T14:00:54.288Z,3.48
2023-02-02T14:03:51.388Z,3.46
2023-02-02T14:06:53.362Z,3.42
2023-02-02T14:09:40.275Z,3.38
2023-02-02T14:12:33.393Z,3.34
2023-02-02T14:15:20.522Z,3.23
2023-02-02T14:18:09.797Z,3.24
2023-02-02T14:20:56.439Z,3.17
2023-02-02T14:23:54.145Z,3.13
2023-02-02T14:26:45.803Z,3.13
2023-02-02T14:29:32.369Z,3.15
2023-02-02T14:32:25.391Z,3.13
2023-02-02T14:35:11.939Z,3.03
2023-02-02T14:38:09.408Z,2.83
2023-02-02T14:41:10.733Z,2.58
2023-02-02T14:44:04.761Z,2.52
2023-02-02T14:46:56.922Z,2.46
2023-02-02T14:49:43.993Z,2.22
2023-02-02T14:52:31.484Z,2.35
2023-02-02T14:55:20.684Z,2.32
2023-02-02T14:58:08.079Z,2.30
2023-02-02T15:01:07.747Z,2.12
2023-02-02T15:04:21.678Z,2.24
2023-02-02T15:07:23.339Z,2.07
2023-02-02T15:10:15.574Z,2.08
2023-02-02T15:13:08.118Z,2.23
2023-02-02T15:16:32.218Z,2.22
2023-02-02T15:19:33.801Z,2.26
2023-02-02T15:22:31.573Z,2.22
2023-02-02T15:25:49.940Z,2.28
2023-02-02T15:28:47.210Z,2.23
2023-02-02T15:31:37.331Z,2.03
2023-02-02T15:34:48.534Z,2.11
2023-02-02T15:37:41.820Z,2.26
2023-02-02T15:40:30.046Z,1.86
2023-02-02T15:43:17.821Z,2.13
2023-02-02T15:46:14.451Z,2.17
2023-02-02T15:49:35.868Z,2.02
2023-02-02T15:52:27.102Z,2.17
2023-02-02T15:55:35.100Z,2.04
2023-02-02T15:58:36.605Z,2.06
2023-02-02T16:01:26.649Z,2.02
2023-02-02T16:04:20.190Z,1.96
2023-02-02T16:07:13.906Z,1.67
2023-02-02T16:10:05.312Z,1.53
2023-02-02T16:12:52.175Z,1.55
2023-02-02T16:15:42.257Z,1.56
2023-02-02T16:18:30.685Z,1.49
2023-02-02T16:21:23.754Z,1.42
2023-02-02T16:24:17.786Z,1.22
2023-02-02T16:27:07.263Z,1.38
2023-02-02T16:29:56.743Z,1.36
2023-02-02T16:32:44.387Z,1.35
2023-02-02T16:35:34.421Z,1.13
2023-02-02T16:38:30.650Z,1.29
2023-02-02T16:41:34.574Z,1.21
2023-02-02T16:44:30.965Z,1.22
2023-02-02T16:47:26.786Z,1.21
2023-02-02T16:50:26.545Z,1.11
2023-02-02T16:53:23.366Z,1.13
2023-02-02T16:56:10.642Z,1.16
2023-02-02T17:08:27.342Z,0.97
2023-02-02T17:11:27.265Z,0.98
2023-02-02T17:14:20.722Z,0.83
2023-02-02T17:17:10.129Z,0.73
2023-02-02T17:19:57.177Z,0.87
2023-02-02T17:22:51.477Z,0.81
2023-02-02T17:25:42.185Z,0.79
2023-02-02T17:28:30.178Z,0.74
2023-02-02T17:31:18.188Z,0.79
2023-02-02T17:34:11.468Z,0.82
2023-02-02T17:37:00.914Z,0.73
2023-02-02T17:39:50.596Z,0.70
2023-02-02T17:42:37.254Z,0.53
2023-02-02T17:45:33.970Z,0.61
2023-02-02T17:48:21.074Z,0.59
2023-02-02T17:51:16.893Z,0.85
2023-02-02T17:54:10.995Z,0.89
2023-02-02T17:56:57.665Z,0.91
2023-02-02T17:59:44.212Z,0.80
2023-02-02T18:02:31.018Z,0.82
2023-02-02T18:05:18.190Z,1.01
2023-02-02T18:08:07.410Z,1.07
2023-02-02T18:10:57.083Z,0.80
2023-02-02T18:13:44.381Z,0.95
2023-02-02T18:16:31.187Z,0.87
2023-02-02T18:19:18.920Z,1.09
2023-02-02T18:22:06.768Z,1.13
2023-02-02T18:24:56.009Z,1.11
2023-02-02T18:27:46.860Z,1.07
2023-02-02T18:30:38.831Z,1.12
2023-02-02T18:33:26.564Z,1.01
2023-02-02T18:36:21.139Z,1.05
2023-02-02T18:39:12.460Z,1.07
2023-02-02T18:42:00.009Z,0.88
2023-02-02T18:44:51.215Z,0.86
2023-02-02T18:47:41.016Z,0.86
2023-02-02T18:50:28.692Z,0.85
2023-02-02T18:53:18.005Z,0.82
2023-02-02T18:56:09.108Z,0.86
2023-02-02T18:58:56.399Z,0.85
2023-02-02T19:01:43.429Z,0.87
2023-02-02T19:04:30.007Z,0.89
2023-02-02T19:07:35.065Z,0.97
2023-02-02T19:10:24.472Z,0.41
2023-02-02T19:13:19.580Z,1.08
2023-02-02T19:16:27.909Z,0.79
2023-02-02T19:19:33.478Z,1.07
2023-02-02T19:22:21.253Z,1.10
2023-02-02T19:25:11.375Z,1.20
2023-02-02T19:28:00.566Z,1.24
2023-02-02T19:30:49.048Z,0.81
2023-02-02T19:33:40.412Z,1.17
2023-02-02T19:36:31.143Z,0.81
2023-02-02T19:39:31.304Z,1.09
2023-02-02T19:42:17.608Z,1.02
2023-02-02T19:45:26.441Z,1.07
2023-02-02T19:48:23.604Z,1.02
2023-02-02T19:51:38.542Z,0.83
2023-02-02T19:54:38.261Z,0.97
2023-02-02T19:57:43.353Z,0.99
2023-02-02T20:00:31.850Z,0.94
2023-02-02T20:03:29.315Z,0.81
2023-02-02T20:06:28.277Z,0.90
2023-02-02T20:09:20.328Z,0.84
2023-02-02T20:12:31.286Z,0.75
2023-02-02T20:15:28.892Z,0.70
2023-02-02T20:18:27.764Z,0.61
2023-02-02T20:21:27.475Z,0.52
2023-02-02T20:24:22.025Z,0.50
2023-02-02T20:27:14.917Z,0.48
2023-02-02T20:30:18.402Z,0.52
2023-02-02T20:33:20.329Z,0.36
2023-02-02T20:36:28.256Z,0.51
2023-02-02T20:42:58.919Z,0.32
2023-02-02T20:45:45.846Z,0.57
2023-02-02T20:48:34.447Z,0.61
2023-02-02T20:51:22.280Z,0.54
2023-02-02T20:54:11.539Z,0.59
2023-02-02T20:56:58.413Z,0.66
2023-02-02T20:59:44.867Z,0.68
2023-02-02T21:02:31.767Z,0.65
2023-02-02T21:05:18.823Z,0.62
2023-02-02T21:08:07.752Z,0.43
2023-02-02T21:10:54.278Z,0.37
2023-02-02T21:13:41.422Z,0.51
2023-02-02T21:16:27.926Z,0.47
2023-02-02T21:19:17.448Z,0.40
2023-02-02T21:22:03.980Z,0.19
2023-02-02T21:24:50.574Z,0.23
2023-02-02T21:27:37.706Z,0.20
2023-02-02T21:30:24.734Z,0.09
2023-02-02T21:33:13.679Z,0.04
2023-02-02T21:36:25.625Z,0.04
2023-02-02T21:39:30.438Z,0.02
2023-02-02T21:42:22.453Z,-0.06
2023-02-02T21:45:26.181Z,-0.15
2023-02-02T21:48:34.288Z,-0.27
2023-02-02T21:51:26.584Z,-0.52
2023-02-02T21:54:21.222Z,-0.22
2023-02-02T21:57:18.248Z,-0.37
2023-02-02T22:00:27.074Z,-0.23
2023-02-02T22:03:40.614Z,-0.37
2023-02-02T22:06:36.017Z,-0.31
2023-02-02T22:09:26.678Z,-0.37
2023-02-02T22:12:24.020Z,-0.55
2023-02-02T22:15:21.235Z,-0.59
2023-02-02T22:18:28.933Z,-0.48
2023-02-02T22:21:20.809Z,-0.67
2023-02-02T22:24:10.887Z,-0.56
2023-02-02T22:26:58.762Z,-0.51
2023-02-02T22:29:46.524Z,-0.55
2023-02-02T22:32:32.672Z,-0.56
2023-02-02T22:35:19.667Z,-0.76
2023-02-02T22:38:06.121Z,-0.57
2023-02-02T22:40:53.025Z,-0.61
2023-02-02T22:43:39.556Z,-0.64
2023-02-02T22:46:28.321Z,-0.70
2023-02-02T22:49:14.817Z,-0.83
2023-02-02T22:52:03.074Z,-0.74
2023-02-02T22:54:49.526Z,-0.72
2023-02-02T22:57:36.200Z,-0.75
2023-02-02T23:00:25.661Z,-0.70
2023-02-02T23:03:12.464Z,-0.85
2023-02-02T23:05:58.768Z,-0.72
2023-02-02T23:08:46.119Z,-0.77
2023-02-02T23:11:32.895Z,-0.72
2023-02-02T23:14:19.287Z,-0.72
2023-02-02T23:17:08.298Z,-0.92
2023-02-02T23:19:55.029Z,-0.79
2023-02-02T23:22:41.458Z,-0.76
2023-02-02T23:25:30.540Z,-0.95
2023-02-02T23:28:17.028Z,-0.77
2023-02-02T23:31:06.187Z,-0.83
2023-02-02T23:33:52.417Z,-0.77
2023-02-02T23:36:38.994Z,-0.80
2023-02-02T23:39:25.417Z,-0.95
2023-02-02T23:42:13.107Z,-0.76
2023-02-02T23:45:00.037Z,-0.74
2023-02-02T23:47:46.946Z,-0.75
2023-02-02T23:50:34.941Z,-0.98
2023-02-02T23:53:22.720Z,-0.79
2023-02-02T23:56:08.925Z,-1.08
2023-02-02T23:58:58.708Z,-0.90
